createdAt,value
2023-12-10T00:00:44.894Z,7.20
2023-12-10T00:03:13.238Z,7.77
2023-12-10T00:05:41.602Z,7.70
2023-12-10T00:08:11.191Z,9.03
2023-12-10T00:10:39.379Z,6.47
2023-12-10T00:13:07.612Z,7.60
2023-12-10T00:15:35.835Z,9.33
2023-12-10T00:18:04.221Z,8.20
2023-12-10T00:20:32.534Z,7.07
2023-12-10T00:23:00.851Z,8.27
2023-12-10T00:25:32.774Z,7.10
2023-12-10T00:28:01.010Z,4.77
2023-12-10T00:30:29.245Z,5.87
2023-12-10T00:32:57.500Z,4.57
2023-12-10T00:35:25.970Z,5.70
2023-12-10T00:37:54.236Z,3.33
2023-12-10T00:40:22.494Z,4.27
2023-12-10T00:42:52.444Z,4.30
2023-12-10T00:45:21.030Z,4.23
2023-12-10T00:47:49.386Z,3.40
2023-12-10T00:50:17.698Z,4.47
2023-12-10T00:52:47.028Z,4.23
2023-12-10T00:55:15.260Z,4.13
2023-12-10T00:57:43.516Z,4.23
2023-12-10T01:00:14.186Z,4.13
2023-12-10T01:02:42.487Z,4.43
2023-12-10T01:05:10.974Z,5.03
2023-12-10T01:07:39.243Z,4.43
2023-12-10T01:10:07.636Z,3.80
2023-12-10T01:12:37.650Z,4.30
2023-12-10T01:15:06.712Z,3.57
2023-12-10T01:17:36.270Z,3.53
2023-12-10T01:20:04.884Z,3.30
2023-12-10T01:22:33.095Z,4.33
2023-12-10T01:25:01.895Z,4.30
2023-12-10T01:27:30.139Z,4.63
2023-12-10T01:29:58.486Z,4.30
2023-12-10T01:32:27.092Z,4.47
2023-12-10T01:34:57.053Z,3.97
2023-12-10T01:37:25.364Z,3.37
2023-12-10T01:39:53.522Z,3.50
2023-12-10T01:42:21.768Z,4.33
2023-12-10T01:44:49.967Z,3.67
2023-12-10T01:47:19.382Z,2.87
2023-12-10T01:49:47.822Z,4.17
2023-12-10T01:52:17.363Z,3.70
2023-12-10T01:54:45.635Z,4.37
2023-12-10T01:57:14.572Z,5.27
2023-12-10T01:59:42.858Z,4.47
2023-12-10T02:02:13.978Z,4.27
2023-12-10T02:04:42.462Z,4.53
2023-12-10T02:07:10.750Z,4.43
2023-12-10T02:09:40.369Z,4.13
2023-12-10T02:12:08.769Z,3.50
2023-12-10T02:14:36.986Z,3.93
2023-12-10T02:17:05.354Z,4.20
2023-12-10T02:19:34.971Z,3.93
2023-12-10T02:22:03.506Z,4.47
2023-12-10T02:24:35.249Z,3.87
2023-12-10T02:27:05.134Z,4.73
2023-12-10T02:29:33.395Z,4.60
2023-12-10T02:32:01.634Z,4.40
2023-12-10T02:34:29.877Z,4.07
2023-12-10T02:36:58.096Z,3.57
2023-12-10T02:39:26.267Z,3.93
2023-12-10T02:41:54.484Z,4.83
2023-12-10T02:44:24.001Z,4.73
2023-12-10T02:46:52.268Z,4.50
2023-12-10T02:49:20.459Z,4.03
2023-12-10T02:51:48.765Z,4.40
2023-12-10T02:54:17.010Z,3.83
2023-12-10T02:56:45.181Z,4.50
2023-12-10T02:59:13.360Z,3.10
2023-12-10T03:01:43.007Z,3.50
2023-12-10T03:04:11.314Z,3.50
2023-12-10T03:06:39.565Z,4.30
2023-12-10T03:09:07.819Z,3.77
2023-12-10T03:11:36.045Z,4.90
2023-12-10T03:14:05.435Z,3.93
2023-12-10T03:16:33.700Z,3.33
2023-12-10T03:19:03.374Z,3.67
2023-12-10T03:21:31.647Z,4.67
2023-12-10T03:24:00.062Z,4.43
2023-12-10T03:26:28.338Z,4.17
2023-12-10T03:28:56.551Z,4.50
2023-12-10T03:31:24.752Z,4.50
2023-12-10T03:33:53.098Z,4.20
2023-12-10T03:36:23.015Z,4.97
2023-12-10T03:38:51.243Z,3.70
2023-12-10T03:41:19.482Z,4.83
2023-12-10T03:43:47.660Z,3.90
2023-12-10T03:46:15.885Z,4.40
2023-12-10T03:48:44.194Z,4.17
2023-12-10T03:51:12.545Z,4.23
2023-12-10T03:53:42.113Z,3.80
2023-12-10T03:56:12.223Z,4.00
2023-12-10T03:58:40.492Z,3.53
2023-12-10T04:01:08.918Z,4.83
2023-12-10T04:03:37.328Z,4.60
2023-12-10T04:06:05.542Z,4.33
2023-12-10T04:08:33.695Z,4.10
2023-12-10T04:11:03.543Z,4.00
2023-12-10T04:13:32.503Z,3.73
2023-12-10T04:16:01.543Z,3.17
2023-12-10T04:18:30.022Z,3.17
2023-12-10T04:20:58.419Z,3.80
2023-12-10T04:23:29.194Z,3.60
2023-12-10T04:25:57.442Z,4.40
2023-12-10T04:28:26.957Z,4.33
2023-12-10T04:30:55.247Z,4.00
2023-12-10T04:33:23.694Z,5.73
2023-12-10T04:35:52.480Z,4.03
2023-12-10T04:38:20.658Z,3.60
2023-12-10T04:40:48.905Z,4.07
2023-12-10T04:43:17.145Z,4.27
2023-12-10T04:45:46.834Z,3.23
2023-12-10T04:48:15.481Z,3.73
2023-12-10T04:50:43.897Z,4.90
2023-12-10T04:53:12.109Z,3.10
2023-12-10T04:55:40.309Z,3.93
2023-12-10T04:58:08.793Z,4.80
2023-12-10T05:00:37.044Z,3.70
2023-12-10T05:03:06.764Z,3.60
2023-12-10T05:05:35.071Z,3.97
2023-12-10T05:08:03.976Z,3.53
2023-12-10T05:10:33.039Z,3.87
2023-12-10T05:13:01.602Z,4.20
2023-12-10T05:15:29.998Z,3.60
2023-12-10T05:17:58.323Z,3.67
2023-12-10T05:20:28.013Z,4.67
2023-12-10T05:22:56.280Z,4.23
2023-12-10T05:25:24.494Z,3.50
2023-12-10T05:27:52.771Z,2.83
2023-12-10T05:30:20.997Z,4.27
2023-12-10T05:32:49.258Z,3.47
2023-12-10T05:35:17.580Z,2.93
2023-12-10T05:37:47.094Z,5.40
2023-12-10T05:40:15.315Z,4.17
2023-12-10T05:42:43.534Z,4.50
2023-12-10T05:45:12.119Z,3.90
2023-12-10T05:47:40.523Z,4.93
2023-12-10T05:50:08.967Z,3.87
2023-12-10T05:52:37.173Z,4.43
2023-12-10T05:55:07.442Z,4.63
2023-12-10T05:57:35.731Z,3.93
2023-12-10T06:00:04.961Z,3.97
2023-12-10T06:02:33.933Z,3.20
2023-12-10T06:05:02.268Z,3.83
2023-12-10T06:07:30.444Z,4.33
2023-12-10T06:09:58.769Z,4.63
2023-12-10T06:12:28.729Z,4.27
2023-12-10T06:14:57.219Z,4.30
2023-12-10T06:17:25.397Z,4.23
2023-12-10T06:19:54.474Z,5.17
2023-12-10T06:22:22.705Z,3.33
2023-12-10T06:24:51.127Z,4.40
2023-12-10T06:27:19.358Z,4.43
2023-12-10T06:29:48.966Z,4.33
2023-12-10T06:32:17.231Z,3.60
2023-12-10T06:34:45.750Z,3.93
2023-12-10T06:37:14.009Z,3.60
2023-12-10T06:39:42.228Z,4.60
2023-12-10T06:42:10.855Z,3.43
2023-12-10T06:44:39.053Z,3.20
2023-12-10T06:47:08.548Z,4.17
2023-12-10T06:49:36.818Z,3.03
2023-12-10T06:52:05.461Z,3.70
2023-12-10T06:54:33.769Z,3.37
2023-12-10T06:57:01.929Z,3.63
2023-12-10T06:59:30.168Z,3.57
2023-12-10T07:01:58.386Z,4.73
2023-12-10T07:04:27.902Z,4.07
2023-12-10T07:06:56.377Z,3.13
2023-12-10T07:09:24.970Z,4.33
2023-12-10T07:11:53.403Z,3.60
2023-12-10T07:14:21.674Z,4.23
2023-12-10T07:16:49.864Z,3.77
2023-12-10T07:19:18.232Z,3.70
2023-12-10T07:21:49.985Z,4.75
2023-12-10T07:24:18.254Z,4.37
2023-12-10T07:26:46.490Z,5.03
2023-12-10T07:29:14.700Z,4.00
2023-12-10T07:31:42.901Z,4.60
2023-12-10T07:34:11.237Z,4.50
2023-12-10T07:36:40.730Z,3.77
2023-12-10T07:39:10.809Z,5.13
2023-12-10T07:41:39.138Z,2.97
2023-12-10T07:44:06.420Z,4.00
2023-12-10T07:46:34.642Z,3.40
2023-12-10T07:49:02.963Z,3.53
2023-12-10T07:51:31.318Z,3.73
2023-12-10T07:53:59.580Z,3.93
2023-12-10T07:56:29.144Z,3.60
2023-12-10T07:58:57.349Z,3.03
2023-12-10T08:01:25.586Z,3.50
2023-12-10T08:03:53.896Z,4.83
2023-12-10T08:06:22.363Z,4.03
2023-12-10T08:08:50.598Z,3.90
2023-12-10T08:11:18.907Z,3.73
2023-12-10T08:13:48.814Z,3.57
2023-12-10T08:16:17.488Z,4.57
2023-12-10T08:18:45.982Z,4.00
2023-12-10T08:21:15.500Z,4.40
2023-12-10T08:23:44.313Z,3.40
2023-12-10T08:26:12.499Z,3.77
2023-12-10T08:28:40.744Z,3.40
2023-12-10T08:31:10.352Z,4.27
2023-12-10T08:33:38.803Z,3.17
2023-12-10T08:36:07.290Z,4.17
2023-12-10T08:38:35.469Z,4.00
2023-12-10T08:41:03.620Z,3.67
2023-12-10T08:43:33.823Z,4.10
2023-12-10T08:46:02.215Z,2.87
2023-12-10T08:48:32.369Z,3.60
2023-12-10T08:51:00.747Z,3.60
2023-12-10T08:53:28.949Z,4.97
2023-12-10T08:55:57.195Z,3.17
2023-12-10T08:58:26.193Z,3.87
2023-12-10T09:00:54.613Z,3.80
2023-12-10T09:03:22.965Z,3.73
2023-12-10T09:05:52.888Z,4.47
2023-12-10T09:08:21.058Z,4.10
2023-12-10T09:10:49.273Z,3.93
2023-12-10T09:13:17.488Z,3.33
2023-12-10T09:15:45.733Z,4.43
2023-12-10T09:18:14.167Z,4.43
2023-12-10T09:20:42.423Z,4.90
2023-12-10T09:23:11.906Z,3.50
2023-12-10T09:25:40.214Z,3.67
2023-12-10T09:28:08.504Z,3.77
2023-12-10T09:30:36.960Z,3.57
2023-12-10T09:33:06.361Z,3.60
2023-12-10T09:35:34.682Z,3.80
2023-12-10T09:38:04.278Z,3.93
2023-12-10T09:40:34.566Z,3.60
2023-12-10T09:43:03.570Z,3.90
2023-12-10T09:45:31.945Z,3.87
2023-12-10T09:48:00.312Z,4.53
2023-12-10T09:50:28.802Z,2.90
2023-12-10T09:52:57.007Z,3.50
2023-12-10T09:55:25.357Z,2.47
2023-12-10T09:57:55.061Z,4.00
2023-12-10T10:00:23.446Z,4.30
2023-12-10T10:02:51.644Z,4.60
2023-12-10T10:05:19.848Z,3.27
2023-12-10T10:07:48.074Z,3.27
2023-12-10T10:10:16.309Z,2.90
2023-12-10T10:12:48.483Z,2.73
2023-12-10T10:15:26.944Z,2.43
2023-12-10T10:17:55.539Z,3.40
2023-12-10T10:20:24.078Z,2.87
2023-12-10T10:22:52.556Z,2.57
2023-12-10T10:25:21.234Z,2.57
2023-12-10T10:27:51.235Z,3.30
2023-12-10T10:30:20.926Z,3.40
2023-12-10T10:32:49.401Z,3.20
2023-12-10T10:35:17.729Z,2.80
2023-12-10T10:37:45.904Z,2.90
2023-12-10T10:40:14.161Z,3.53
2023-12-10T10:42:42.474Z,3.73
2023-12-10T10:45:11.136Z,3.10
2023-12-10T10:47:40.923Z,2.93
2023-12-10T10:50:21.748Z,2.63
2023-12-10T10:52:53.682Z,2.60
2023-12-10T10:55:21.971Z,3.37
2023-12-10T10:57:50.307Z,2.90
2023-12-10T11:00:37.574Z,2.90
2023-12-10T11:03:10.416Z,2.80
2023-12-10T11:05:40.535Z,2.30
2023-12-10T11:08:09.698Z,2.63
2023-12-10T11:10:38.211Z,2.43
2023-12-10T11:13:06.441Z,1.83
2023-12-10T11:15:34.642Z,2.73
2023-12-10T11:18:03.854Z,2.87
2023-12-10T11:20:33.464Z,2.50
2023-12-10T11:23:01.702Z,2.60
2023-12-10T11:25:30.554Z,2.63
2023-12-10T11:27:58.966Z,2.67
2023-12-10T11:30:27.864Z,2.97
2023-12-10T11:32:56.208Z,2.73
2023-12-10T11:35:24.482Z,2.53
2023-12-10T11:37:54.098Z,2.93
2023-12-10T11:40:23.134Z,3.40
2023-12-10T11:42:51.384Z,3.00
2023-12-10T11:45:19.743Z,3.03
2023-12-10T11:47:48.536Z,3.60
2023-12-10T11:50:16.957Z,3.63
2023-12-10T11:52:45.331Z,2.87
2023-12-10T11:55:15.150Z,2.73
2023-12-10T11:57:44.488Z,2.87
2023-12-10T12:00:13.600Z,2.67
2023-12-10T12:02:42.973Z,3.43
2023-12-10T12:05:12.755Z,2.97
2023-12-10T12:07:43.427Z,3.63
2023-12-10T12:10:12.777Z,4.03
2023-12-10T12:12:42.921Z,3.57
2023-12-10T12:15:12.349Z,3.33
2023-12-10T12:17:40.872Z,3.83
2023-12-10T12:20:15.966Z,2.93
2023-12-10T12:22:47.140Z,3.67
2023-12-10T12:25:17.179Z,3.23
2023-12-10T12:27:46.838Z,3.77
2023-12-10T12:30:15.835Z,5.80
2023-12-10T12:32:44.128Z,4.03
2023-12-10T12:35:12.396Z,4.60
2023-12-10T12:37:40.612Z,4.40
2023-12-10T12:40:09.577Z,4.53
2023-12-10T12:42:37.843Z,4.97
2023-12-10T12:45:08.355Z,4.73
2023-12-10T12:47:36.826Z,5.53
2023-12-10T12:50:05.361Z,4.43
2023-12-10T12:52:33.638Z,4.77
2023-12-10T12:55:02.617Z,5.80
2023-12-10T12:57:31.076Z,5.97
2023-12-10T12:59:59.493Z,6.80
2023-12-10T13:02:29.141Z,7.20
2023-12-10T13:04:57.629Z,7.43
2023-12-10T13:07:26.038Z,9.70
2023-12-10T13:09:54.314Z,9.33
2023-12-10T13:12:23.005Z,8.47
2023-12-10T13:14:53.112Z,7.97
2023-12-10T13:17:21.439Z,9.20
2023-12-10T13:19:51.103Z,8.73
2023-12-10T13:22:19.296Z,10.70
2023-12-10T13:24:47.617Z,7.63
2023-12-10T13:27:17.150Z,9.00
2023-12-10T13:29:45.408Z,9.03
2023-12-10T13:32:13.606Z,8.30
2023-12-10T13:34:41.849Z,7.77
2023-12-10T13:37:12.155Z,7.60
2023-12-10T13:39:40.374Z,7.80
2023-12-10T13:42:08.959Z,8.37
2023-12-10T13:44:37.281Z,7.67
2023-12-10T13:47:05.524Z,7.87
2023-12-10T13:49:34.129Z,7.80
2023-12-10T13:52:02.442Z,6.80
2023-12-10T13:54:32.071Z,7.13
2023-12-10T13:57:00.346Z,7.93
2023-12-10T13:59:29.768Z,7.57
2023-12-10T14:01:58.086Z,9.20
2023-12-10T14:04:26.360Z,7.73
2023-12-10T14:06:54.695Z,8.33
2023-12-10T14:09:22.913Z,9.07
2023-12-10T14:11:52.487Z,8.50
2023-12-10T14:14:20.835Z,8.83
2023-12-10T14:16:49.076Z,9.83
2023-12-10T14:19:17.358Z,9.53
2023-12-10T14:21:45.638Z,9.07
2023-12-10T14:24:13.951Z,10.30
2023-12-10T14:26:42.189Z,11.37
2023-12-10T14:29:11.782Z,10.70
2023-12-10T14:31:40.011Z,10.57
2023-12-10T14:34:08.300Z,12.33
2023-12-10T14:36:38.120Z,10.60
2023-12-10T14:39:07.619Z,9.70
2023-12-10T14:41:35.867Z,9.13
2023-12-10T14:44:04.110Z,8.70
2023-12-10T14:46:33.972Z,7.80
2023-12-10T14:49:02.320Z,6.73
2023-12-10T14:51:30.926Z,6.17
2023-12-10T14:53:59.351Z,5.57
2023-12-10T14:56:27.650Z,4.83
2023-12-10T14:58:55.916Z,5.33
2023-12-10T15:01:24.250Z,4.60
2023-12-10T15:03:54.342Z,5.30
2023-12-10T15:06:22.638Z,4.37
2023-12-10T15:08:50.875Z,5.30
2023-12-10T15:11:19.066Z,6.00
2023-12-10T15:13:47.270Z,5.00
2023-12-10T15:16:17.521Z,4.70
2023-12-10T15:18:45.828Z,4.13
2023-12-10T15:21:15.502Z,4.50
2023-12-10T15:23:43.950Z,3.83
2023-12-10T15:26:13.013Z,4.00
2023-12-10T15:28:41.456Z,3.67
2023-12-10T15:31:10.049Z,3.93
2023-12-10T15:33:38.692Z,3.20
2023-12-10T15:36:09.074Z,2.73
2023-12-10T15:38:38.778Z,2.80
2023-12-10T15:41:07.125Z,3.63
2023-12-10T15:43:35.353Z,3.27
2023-12-10T15:46:03.671Z,3.30
2023-12-10T15:48:34.777Z,4.13
2023-12-10T15:51:03.074Z,4.20
2023-12-10T15:53:31.378Z,4.13
2023-12-10T15:56:01.314Z,4.73
2023-12-10T15:58:29.537Z,4.53
2023-12-10T16:00:57.798Z,4.40
2023-12-10T16:03:26.235Z,5.27
2023-12-10T16:05:54.591Z,5.27
2023-12-10T16:08:23.260Z,6.33
2023-12-10T16:10:51.459Z,5.93
2023-12-10T16:13:23.682Z,7.00
2023-12-10T16:15:52.746Z,7.90
2023-12-10T16:18:21.167Z,8.70
2023-12-10T16:20:49.413Z,9.53
2023-12-10T16:23:17.639Z,12.57
2023-12-10T16:25:45.862Z,17.30
2023-12-10T16:28:14.278Z,20.27
2023-12-10T16:30:44.059Z,27.47
2023-12-10T16:33:12.278Z,33.73
2023-12-10T16:35:40.500Z,46.03
2023-12-10T16:38:08.663Z,46.93
2023-12-10T16:40:36.844Z,50.63
2023-12-10T16:43:07.235Z,46.47
2023-12-10T16:45:35.586Z,54.87
2023-12-10T16:48:05.262Z,63.20
2023-12-10T16:50:33.526Z,65.30
2023-12-10T16:53:01.729Z,72.07
2023-12-10T16:55:29.995Z,71.63
2023-12-10T16:57:58.606Z,87.60
2023-12-10T17:00:26.911Z,103.07
2023-12-10T17:02:55.235Z,100.30
2023-12-10T17:05:26.037Z,108.80
2023-12-10T17:07:54.212Z,110.67
2023-12-10T17:10:23.225Z,131.77
2023-12-10T17:12:51.527Z,138.30
2023-12-10T17:15:19.904Z,150.47
2023-12-10T17:17:48.317Z,156.87
2023-12-10T17:20:16.758Z,187.90
2023-12-10T17:22:46.530Z,207.93
2023-12-10T17:25:14.821Z,179.00
2023-12-10T17:27:43.024Z,216.87
2023-12-10T17:30:11.825Z,227.63
2023-12-10T17:32:40.132Z,245.53
2023-12-10T17:35:08.827Z,239.43
2023-12-10T17:37:37.197Z,260.23
2023-12-10T17:40:07.533Z,305.90
2023-12-10T17:42:35.810Z,285.40
2023-12-10T17:45:04.034Z,303.50
2023-12-10T17:47:32.514Z,353.97
2023-12-10T17:50:01.192Z,353.27
2023-12-10T17:52:29.466Z,344.63
2023-12-10T17:54:58.211Z,358.47
2023-12-10T17:57:28.076Z,377.03
2023-12-10T17:59:56.690Z,408.20
2023-12-10T18:02:24.914Z,407.87
2023-12-10T18:04:53.504Z,459.53
2023-12-10T18:07:23.314Z,463.80
2023-12-10T18:09:52.609Z,470.30
2023-12-10T18:12:19.822Z,512.93
2023-12-10T18:14:49.299Z,510.23
2023-12-10T18:17:17.499Z,536.33
2023-12-10T18:19:45.976Z,649.33
2023-12-10T18:22:14.396Z,617.10
2023-12-10T18:24:43.153Z,650.40
2023-12-10T18:27:11.372Z,661.10
2023-12-10T18:29:39.540Z,641.13
2023-12-10T18:32:09.366Z,645.13
2023-12-10T18:34:37.617Z,665.07
2023-12-10T18:37:06.052Z,684.87
2023-12-10T18:39:34.360Z,645.13
2023-12-10T18:42:02.858Z,682.30
2023-12-10T18:44:31.059Z,682.97
2023-12-10T18:46:59.267Z,682.10
2023-12-10T18:49:28.977Z,701.03
2023-12-10T18:51:57.190Z,712.33
2023-12-10T18:54:28.225Z,721.77
2023-12-10T18:56:57.062Z,726.40
2023-12-10T18:59:25.312Z,687.83
2023-12-10T19:01:53.711Z,697.70
2023-12-10T19:04:22.026Z,664.60
2023-12-10T19:06:51.666Z,668.53
2023-12-10T19:09:19.943Z,665.97
2023-12-10T19:11:48.214Z,638.03
2023-12-10T19:14:16.460Z,615.83
2023-12-10T19:16:44.728Z,603.27
2023-12-10T19:19:13.442Z,616.57
2023-12-10T19:21:41.882Z,588.40
2023-12-10T19:24:11.513Z,581.07
2023-12-10T19:26:39.717Z,554.87
2023-12-10T19:29:08.288Z,549.20
2023-12-10T19:31:36.523Z,557.87
2023-12-10T19:34:05.520Z,528.63
2023-12-10T19:36:33.930Z,544.37
2023-12-10T19:39:02.171Z,548.07
2023-12-10T19:41:31.732Z,546.33
2023-12-10T19:43:59.859Z,555.37
2023-12-10T19:46:28.113Z,528.23
2023-12-10T19:48:56.328Z,453.50
2023-12-10T19:51:24.621Z,400.27
2023-12-10T19:53:52.856Z,286.73
2023-12-10T19:56:21.033Z,286.30
2023-12-10T19:58:50.579Z,231.27
2023-12-10T20:01:19.404Z,149.53
2023-12-10T20:03:48.723Z,140.90
2023-12-10T20:06:18.011Z,120.87
2023-12-10T20:08:46.189Z,123.43
2023-12-10T20:11:14.373Z,110.87
2023-12-10T20:13:42.757Z,93.83
2023-12-10T20:16:12.600Z,94.00
2023-12-10T20:18:41.005Z,97.83
2023-12-10T20:21:09.314Z,94.17
2023-12-10T20:23:37.486Z,80.93
2023-12-10T20:26:05.896Z,70.77
2023-12-10T20:28:33.169Z,47.30
2023-12-10T20:31:01.352Z,33.63
2023-12-10T20:33:31.069Z,31.30
2023-12-10T20:36:00.219Z,26.27
2023-12-10T20:38:28.413Z,21.13
2023-12-10T20:40:58.455Z,18.57
2023-12-10T20:43:26.727Z,15.67
2023-12-10T20:45:54.933Z,13.77
2023-12-10T20:48:23.563Z,15.30
2023-12-10T20:50:53.226Z,13.33
2023-12-10T20:53:21.429Z,11.87
2023-12-10T20:55:49.592Z,12.07
2023-12-10T20:58:18.638Z,9.47
2023-12-10T21:00:46.961Z,8.53
2023-12-10T21:03:19.318Z,7.73
2023-12-10T21:05:48.262Z,7.50
2023-12-10T21:08:18.315Z,5.87
2023-12-10T21:10:46.604Z,5.63
2023-12-10T21:13:14.970Z,6.57
2023-12-10T21:15:43.335Z,6.00
2023-12-10T21:18:13.420Z,5.40
2023-12-10T21:20:41.920Z,6.23
2023-12-10T21:23:10.776Z,6.60
2023-12-10T21:25:41.120Z,5.63
2023-12-10T21:28:09.577Z,5.83
2023-12-10T21:30:37.858Z,5.20
2023-12-10T21:33:06.132Z,5.57
2023-12-10T21:35:34.331Z,6.13
2023-12-10T21:38:02.513Z,6.67
2023-12-10T21:40:30.695Z,5.77
2023-12-10T21:43:01.656Z,7.13
2023-12-10T21:45:29.967Z,6.53
2023-12-10T21:47:58.345Z,6.30
2023-12-10T21:50:26.627Z,6.30
2023-12-10T21:52:54.813Z,8.10
2023-12-10T21:55:23.002Z,8.60
2023-12-10T21:57:51.193Z,10.00
2023-12-10T22:00:21.020Z,11.40
2023-12-10T22:02:51.198Z,14.03
2023-12-10T22:05:19.534Z,19.53
2023-12-10T22:07:47.822Z,22.93
2023-12-10T22:10:16.097Z,29.83
2023-12-10T22:12:44.361Z,50.60
2023-12-10T22:15:12.781Z,68.30
2023-12-10T22:17:43.364Z,86.60
2023-12-10T22:20:12.289Z,94.97
2023-12-10T22:22:43.276Z,114.17
2023-12-10T22:25:14.641Z,130.90
2023-12-10T22:27:44.409Z,158.67
2023-12-10T22:30:14.086Z,147.40
2023-12-10T22:32:42.915Z,149.87
2023-12-10T22:35:12.660Z,153.33
2023-12-10T22:37:41.735Z,124.73
2023-12-10T22:40:10.553Z,117.30
2023-12-10T22:42:38.864Z,105.77
2023-12-10T22:45:07.700Z,100.83
2023-12-10T22:47:36.047Z,88.60
2023-12-10T22:50:06.026Z,100.70
2023-12-10T22:52:34.219Z,84.90
2023-12-10T22:55:02.597Z,72.53
2023-12-10T22:57:31.127Z,70.03
2023-12-10T22:59:59.581Z,77.57
2023-12-10T23:02:27.807Z,75.50
2023-12-10T23:04:59.931Z,74.83
2023-12-10T23:07:29.841Z,79.73
2023-12-10T23:09:58.205Z,73.80
2023-12-10T23:12:26.426Z,81.63
2023-12-10T23:14:54.660Z,84.13
2023-12-10T23:17:22.901Z,81.93
2023-12-10T23:19:51.319Z,82.63
2023-12-10T23:22:19.871Z,94.97
2023-12-10T23:24:50.116Z,103.37
2023-12-10T23:27:18.527Z,91.63
2023-12-10T23:29:46.689Z,108.97
2023-12-10T23:32:15.050Z,127.37
2023-12-10T23:34:43.277Z,128.53
2023-12-10T23:37:11.676Z,125.83
2023-12-10T23:39:40.012Z,123.57
2023-12-10T23:42:09.728Z,135.20
2023-12-10T23:44:38.081Z,118.37
2023-12-10T23:47:06.633Z,108.57
2023-12-10T23:49:34.925Z,112.20
2023-12-10T23:52:03.237Z,128.43
2023-12-10T23:54:31.460Z,137.80
2023-12-10T23:56:59.703Z,134.47
2023-12-10T23:59:29.419Z,124.97
